Leon Junction, Texas
Current Conditions -  °F | °C
As of 5:35 PM on Saturday 22 Nov 2014 (Local Time) from KGOP Reporting Station
Overcast Overcast  
Wind Chill: 61°   Ceiling: 200
Heat Index: 61°   Visibility: 5mi
Dew Point: 61°   Wind: 7mph
Humidity: 100%   Direction: 120°ESE
Pressure: 29.84"   Gusts: NA
Location:  31.34°N, 97.59°W
Report Text: KGOP 222335Z AUTO 12006KT 5SM BKN002 OVC007 16/16 A2984 RMK AO2 LTG DSNT ALQDS P0001 PWINO
Loading
Personal Weather Stations






























Interactive Weather Map New forecast layout! Learn more

10-Day Weather Forecast

Advertisements
Track Severe Weather on mobile